Time;durP1;ratioP1;P1;durP2;ratioP2;P2;SDS_P1;SDS_P2;PMS_P1;PMS_P2;Temp;Humidity;BMP_temperature;BMP_pressure;BME280_temperature;BME280_humidity;BME280_pressure;Samples;Min_cycle;Max_cycle;Signal;HPM_P1;HPM_P2
2021/01/12 00:01:08;;;;;;;4.13;3.30;;;;;;;22.11;41.94;94737.59;4971822;28;20035;-72
2021/01/12 00:03:33;;;;;;;5.00;3.10;;;;;;;22.07;41.80;94745.28;4972901;28;20054;-72
2021/01/12 00:05:59;;;;;;;4.53;2.90;;;;;;;22.07;41.77;94748.00;4972998;28;20420;-72
2021/01/12 00:08:24;;;;;;;4.32;3.00;;;;;;;22.11;41.65;94748.47;4971994;28;20050;-72
2021/01/12 00:10:50;;;;;;;4.45;3.05;;;;;;;22.09;41.70;94723.00;4973040;28;20514;-72
2021/01/12 00:13:15;;;;;;;4.15;2.92;;;;;;;22.08;41.83;94719.56;4971456;28;20510;-72
2021/01/12 00:15:41;;;;;;;3.88;2.70;;;;;;;22.07;41.94;94709.19;4972829;28;20031;-72
2021/01/12 00:18:06;;;;;;;3.92;2.72;;;;;;;22.08;41.77;94738.59;4971208;28;20085;-72
2021/01/12 00:20:32;;;;;;;4.38;2.80;;;;;;;22.08;41.77;94749.47;4972699;28;20447;-72
2021/01/12 00:22:57;;;;;;;4.38;3.00;;;;;;;21.99;42.09;94730.75;4972352;28;20549;-72
2021/01/12 00:25:22;;;;;;;4.18;3.10;;;;;;;22.04;41.74;94731.97;4972304;28;20093;-72
2021/01/12 00:27:48;;;;;;;4.20;3.10;;;;;;;22.01;41.51;94733.69;4972486;28;20043;-72
2021/01/12 00:30:14;;;;;;;3.58;2.80;;;;;;;21.99;41.90;94719.88;4972412;28;20050;-72
2021/01/12 00:32:39;;;;;;;4.70;2.80;;;;;;;21.83;41.87;94678.50;4972498;28;20384;-72
2021/01/12 00:35:05;;;;;;;4.20;2.92;;;;;;;21.99;42.03;94698.13;4987185;28;20022;-72
2021/01/12 00:37:31;;;;;;;4.40;2.72;;;;;;;21.98;41.87;94723.84;4972147;28;20033;-72
2021/01/12 00:39:56;;;;;;;3.83;2.70;;;;;;;21.97;41.93;94727.06;4972206;28;20054;-71
2021/01/12 00:42:21;;;;;;;3.88;3.10;;;;;;;21.93;41.94;94708.31;4972171;28;20027;-72
2021/01/12 00:44:47;;;;;;;3.50;2.67;;;;;;;21.92;42.04;94713.53;4972076;28;20034;-72
2021/01/12 00:47:12;;;;;;;4.53;3.00;;;;;;;21.93;41.96;94704.88;4970609;28;20113;-72
2021/01/12 00:49:38;;;;;;;3.45;2.60;;;;;;;21.91;41.93;94693.03;4972257;28;20027;-72
2021/01/12 00:52:07;;;;;;;4.72;3.15;;;;;;;21.90;42.00;94688.81;4972108;28;20701;-72
2021/01/12 00:54:33;;;;;;;3.90;2.88;;;;;;;21.92;41.91;94708.09;4972081;28;20033;-72
2021/01/12 00:56:58;;;;;;;4.40;2.70;;;;;;;21.90;41.86;94714.03;4971698;28;20031;-72
2021/01/12 00:59:24;;;;;;;4.65;2.90;;;;;;;21.88;41.89;94702.19;4971471;28;20030;-72
2021/01/12 01:01:49;;;;;;;4.28;3.10;;;;;;;21.89;41.90;94703.66;4971756;28;20022;-72
2021/01/12 01:04:16;;;;;;;3.55;2.67;;;;;;;21.85;41.98;94695.03;4971597;28;20054;-72
2021/01/12 01:06:41;;;;;;;4.03;2.70;;;;;;;21.86;41.97;94688.38;4971533;28;20084;-72
2021/01/12 01:09:08;;;;;;;4.38;2.80;;;;;;;21.84;41.92;94690.84;4971704;28;20043;-72
2021/01/12 01:11:38;;;;;;;4.53;3.00;;;;;;;21.82;41.89;94682.47;4971587;28;20037;-70
2021/01/12 01:14:03;;;;;;;3.97;2.85;;;;;;;21.84;42.11;94690.84;4986002;28;20150;-72
2021/01/12 01:16:32;;;;;;;4.00;2.72;;;;;;;21.80;41.92;94679.53;4971427;28;20023;-72
2021/01/12 01:18:58;;;;;;;4.25;2.70;;;;;;;21.75;41.97;94693.88;4971381;28;20578;-72
2021/01/12 01:21:23;;;;;;;3.60;2.60;;;;;;;21.77;42.03;94702.28;4971599;28;20053;-72
2021/01/12 01:23:49;;;;;;;4.40;3.00;;;;;;;21.75;42.05;94693.88;4971681;28;20443;-72
2021/01/12 01:26:18;;;;;;;4.18;2.78;;;;;;;21.75;42.14;94696.59;4970641;28;20019;-71
2021/01/12 01:28:44;;;;;;;4.55;2.95;;;;;;;21.76;41.99;94711.66;4971536;28;20399;-72
2021/01/12 01:31:09;;;;;;;4.32;2.88;;;;;;;21.74;41.96;94703.28;4970101;28;20085;-72
2021/01/12 01:33:35;;;;;;;3.78;2.70;;;;;;;21.76;42.08;94695.38;4971253;28;20051;-72
2021/01/12 01:36:00;;;;;;;4.25;2.65;;;;;;;21.74;42.02;94697.84;4970880;28;20866;-72
2021/01/12 01:38:26;;;;;;;4.07;2.80;;;;;;;21.69;42.18;94695.94;4971135;28;20023;-73
2021/01/12 01:40:51;;;;;;;4.57;3.00;;;;;;;21.71;42.01;94701.59;4971342;28;20030;-72
2021/01/12 01:43:20;;;;;;;4.78;2.97;;;;;;;21.70;41.85;94691.94;4969671;28;20038;-71
2021/01/12 01:45:45;;;;;;;4.07;2.90;;;;;;;21.60;42.01;94693.53;4969988;28;20026;-72
2021/01/12 01:48:11;;;;;;;3.97;2.80;;;;;;;21.67;42.18;94692.97;4970974;28;20108;-72
2021/01/12 01:50:36;;;;;;;3.90;2.67;;;;;;;21.68;42.04;94689.00;4970939;28;20077;-72
2021/01/12 01:53:02;;;;;;;4.05;2.67;;;;;;;21.55;41.91;94653.53;4970897;28;20027;-72
2021/01/12 01:55:27;;;;;;;5.28;2.90;;;;;;;21.61;41.98;94673.25;4969310;28;20034;-72
2021/01/12 01:57:53;;;;;;;4.05;2.80;;;;;;;21.65;42.14;94684.59;4969503;28;20026;-71
2021/01/12 02:00:20;;;;;;;3.83;2.63;;;;;;;21.65;42.14;94673.72;4970711;28;20027;-71
2021/01/12 02:03:07;;;;;;;3.85;2.78;;;;;;;21.64;42.12;94661.38;4970792;28;20109;-72
2021/01/12 02:05:34;;;;;;;3.92;2.67;;;;;;;21.58;42.23;94664.13;4970742;28;20042;-72
2021/01/12 02:08:03;;;;;;;3.80;2.92;;;;;;;21.61;42.24;94651.50;4970669;28;20110;-72
2021/01/12 02:10:28;;;;;;;3.77;2.50;;;;;;;21.50;42.35;94629.88;4969306;28;20654;-72
2021/01/12 02:13:00;;;;;;;3.28;2.50;;;;;;;21.56;42.25;94639.44;4969267;28;20035;-72
2021/01/12 02:15:26;;;;;;;4.07;2.78;;;;;;;21.57;42.17;94630.06;4970379;28;20033;-72
2021/01/12 02:17:51;;;;;;;4.43;2.70;;;;;;;21.32;42.30;94581.59;4970715;28;20023;-71
2021/01/12 02:20:17;;;;;;;4.28;2.70;;;;;;;21.56;42.26;94611.53;4969342;28;20400;-72
2021/01/12 02:22:46;;;;;;;4.10;2.85;;;;;;;21.55;42.34;94621.69;4985242;28;20093;-71
2021/01/12 02:25:11;;;;;;;3.15;2.72;;;;;;;21.54;42.14;94620.19;4969272;28;20520;-72
2021/01/12 02:27:37;;;;;;;3.60;2.50;;;;;;;21.54;42.24;94619.47;4970448;28;20097;-72
2021/01/12 02:30:03;;;;;;;4.43;2.60;;;;;;;21.51;42.42;94604.19;4970397;28;20415;-71
2021/01/12 02:32:29;;;;;;;3.53;2.72;;;;;;;21.52;42.26;94600.97;4970454;28;20245;-72
2021/01/12 02:34:54;;;;;;;3.78;2.63;;;;;;;21.36;42.49;94592.91;4985187;28;20400;-72
2021/01/12 02:37:20;;;;;;;4.50;3.03;;;;;;;21.50;42.30;94602.69;4969391;28;20031;-71
2021/01/12 02:39:55;;;;;;;4.53;2.95;;;;;;;21.49;42.49;94593.06;4968976;28;20031;-72
2021/01/12 02:42:21;;;;;;;4.20;2.55;;;;;;;21.49;42.30;94590.34;4970377;28;20030;-71
2021/01/12 02:44:46;;;;;;;4.32;2.60;;;;;;;21.45;42.38;94595.31;4970151;28;20029;-72
2021/01/12 02:47:12;;;;;;;3.70;2.70;;;;;;;21.47;42.22;94598.28;4969635;28;20139;-72
2021/01/12 02:49:37;;;;;;;4.10;2.80;;;;;;;21.46;42.39;94585.94;4970375;28;20035;-72
2021/01/12 02:52:03;;;;;;;3.95;2.28;;;;;;;21.44;42.25;94578.25;4970176;28;20038;-72
2021/01/12 02:54:30;;;;;;;3.92;2.60;;;;;;;21.44;42.44;94588.41;4969780;28;20113;-72
2021/01/12 02:56:55;;;;;;;3.70;2.40;;;;;;;21.42;42.29;94575.31;4970144;28;20026;-72
2021/01/12 02:59:21;;;;;;;3.50;2.63;;;;;;;21.42;42.43;94569.16;4970156;28;20485;-71
2021/01/12 03:01:46;;;;;;;4.88;2.90;;;;;;;21.42;42.18;94576.56;4984557;28;20023;-71
2021/01/12 03:04:12;;;;;;;4.03;2.53;;;;;;;21.42;42.30;94588.19;4984931;28;20057;-72
2021/01/12 03:06:37;;;;;;;3.42;2.33;;;;;;;21.38;42.44;94585.00;4970093;28;20027;-72
2021/01/12 03:09:03;;;;;;;3.92;2.90;;;;;;;21.41;42.41;94583.97;4969938;28;20027;-71
2021/01/12 03:11:29;;;;;;;3.47;2.40;;;;;;;21.39;42.41;94570.19;4970071;28;20030;-72
2021/01/12 03:13:54;;;;;;;4.40;2.83;;;;;;;21.38;42.41;94585.00;4969531;28;20042;-72
2021/01/12 03:16:21;;;;;;;4.25;2.80;;;;;;;21.36;42.54;94582.06;4970162;28;20026;-71
2021/01/12 03:18:46;;;;;;;4.68;2.70;;;;;;;21.40;42.34;94587.94;4968473;28;20018;-72
2021/01/12 03:21:12;;;;;;;3.70;2.60;;;;;;;21.38;42.32;94576.84;4969952;28;20026;-72
2021/01/12 03:23:38;;;;;;;3.45;2.35;;;;;;;21.37;42.37;94582.78;4969918;28;20496;-72
2021/01/12 03:26:04;;;;;;;3.50;2.58;;;;;;;21.36;42.42;94576.63;4969655;28;20077;-72
2021/01/12 03:28:29;;;;;;;4.47;3.00;;;;;;;21.34;42.39;94584.53;4969480;28;20035;-72
2021/01/12 03:30:54;;;;;;;3.92;2.75;;;;;;;21.31;42.61;94580.09;4969814;28;20523;-72
2021/01/12 03:33:22;;;;;;;3.85;2.33;;;;;;;21.34;42.51;94579.09;4969446;28;20038;-71
2021/01/12 03:35:48;;;;;;;4.18;2.50;;;;;;;21.35;42.36;94568.97;4969780;28;20697;-72
2021/01/12 03:38:14;;;;;;;3.83;2.45;;;;;;;21.35;42.41;94579.84;4969739;28;20049;-72
2021/01/12 03:40:39;;;;;;;3.47;2.33;;;;;;;21.34;42.48;94573.66;4969891;28;20031;-72
2021/01/12 03:43:05;;;;;;;3.60;2.20;;;;;;;21.33;42.46;94566.78;4969542;28;20042;-72
2021/01/12 03:45:30;;;;;;;4.70;2.70;;;;;;;21.33;42.52;94572.19;4969632;28;20031;-72
2021/01/12 03:47:56;;;;;;;3.88;2.67;;;;;;;21.25;42.30;94557.69;4970351;28;20054;-71
2021/01/12 03:50:24;;;;;;;3.97;2.50;;;;;;;21.33;42.54;94572.19;4973289;28;20432;-72
2021/01/12 03:52:53;;;;;;;3.75;2.47;;;;;;;21.37;42.50;94561.78;4972989;28;20023;-71
2021/01/12 03:55:19;;;;;;;3.60;2.63;;;;;;;21.33;41.86;94528.75;4973596;28;20475;-72
2021/01/12 03:57:45;;;;;;;4.05;2.30;;;;;;;21.52;42.29;94562.16;4972814;28;20038;-72
2021/01/12 04:00:11;;;;;;;3.90;2.40;;;;;;;21.56;42.38;94547.06;4972946;28;20027;-72
2021/01/12 04:02:37;;;;;;;3.22;2.25;;;;;;;21.63;42.18;94534.91;4972713;28;20081;-70
2021/01/12 04:05:03;;;;;;;4.25;2.50;;;;;;;21.67;42.15;94540.78;4972942;28;20066;-72
2021/01/12 04:07:28;;;;;;;3.65;2.60;;;;;;;21.70;41.99;94545.22;4972989;28;20050;-72
2021/01/12 04:09:54;;;;;;;3.83;2.08;;;;;;;21.73;42.02;94541.47;4972700;28;20058;-72
2021/01/12 04:12:19;;;;;;;3.75;2.25;;;;;;;21.65;41.76;94537.84;4972723;28;20093;-72
2021/01/12 04:14:45;;;;;;;3.42;2.30;;;;;;;21.81;41.86;94545.09;4971520;28;20031;-72
2021/01/12 04:17:10;;;;;;;3.35;2.50;;;;;;;21.83;41.85;94529.75;4972479;28;20385;-72
2021/01/12 04:19:35;;;;;;;3.78;2.33;;;;;;;21.83;41.66;94504.56;4972894;28;20039;-72
2021/01/12 04:22:01;;;;;;;3.70;2.40;;;;;;;21.89;41.93;94495.09;4972943;28;20106;-71
2021/01/12 04:24:26;;;;;;;3.00;2.00;;;;;;;21.92;41.61;94497.50;4973070;28;20038;-72
2021/01/12 04:26:52;;;;;;;3.30;2.20;;;;;;;21.94;41.57;94516.78;4975139;28;20039;-72
2021/01/12 04:29:17;;;;;;;3.33;2.22;;;;;;;21.96;41.48;94529.88;4976688;28;20041;-71
2021/01/12 04:31:43;;;;;;;3.05;2.40;;;;;;;21.97;41.53;94526.63;4976172;28;20508;-71
2021/01/12 04:34:08;;;;;;;3.90;2.60;;;;;;;21.99;41.70;94507.81;4976230;28;20038;-71
2021/01/12 04:36:34;;;;;;;3.85;2.35;;;;;;;21.98;41.49;94502.91;4974562;28;20035;-72
2021/01/12 04:38:59;;;;;;;3.72;2.53;;;;;;;21.92;41.55;94480.47;4972454;28;20039;-72
2021/01/12 04:41:26;;;;;;;3.38;2.10;;;;;;;22.02;41.67;94514.97;4972275;28;20041;-72
2021/01/12 04:43:51;;;;;;;3.25;2.45;;;;;;;22.02;41.51;94503.34;4972143;28;20534;-72
2021/01/12 04:46:17;;;;;;;3.08;2.22;;;;;;;22.04;41.48;94509.00;4971109;28;20062;-72
2021/01/12 04:48:42;;;;;;;2.55;2.20;;;;;;;22.05;41.39;94537.69;4972219;28;20492;-72
2021/01/12 04:51:08;;;;;;;3.05;2.05;;;;;;;22.05;41.54;94524.09;4971000;28;20023;-72
2021/01/12 04:53:46;;;;;;;3.53;2.47;;;;;;;22.08;41.45;94531.94;4972247;28;20093;-72
2021/01/12 04:56:15;;;;;;;3.42;2.15;;;;;;;22.09;41.48;94538.88;4971951;28;20511;-72
2021/01/12 04:58:41;;;;;;;3.42;2.10;;;;;;;22.11;41.42;94533.63;4971934;28;20042;-72
2021/01/12 05:01:17;;;;;;;3.38;2.22;;;;;;;21.99;41.55;94502.38;4970954;28;20031;-72
2021/01/12 05:03:53;;;;;;;3.55;2.30;;;;;;;22.01;41.49;94518.91;4986685;28;20050;-72
2021/01/12 05:06:20;;;;;;;3.95;2.28;;;;;;;21.92;41.69;94513.09;4971939;28;20026;-72
2021/01/12 05:08:54;;;;;;;3.80;2.53;;;;;;;21.79;41.58;94521.13;4971801;28;20026;-72
2021/01/12 05:11:29;;;;;;;3.25;2.20;;;;;;;21.93;41.73;94552.63;4985612;28;20034;-72
2021/01/12 05:13:56;;;;;;;4.05;2.10;;;;;;;21.78;41.60;94505.34;4971824;28;20106;-71
2021/01/12 05:16:24;;;;;;;3.25;2.33;;;;;;;21.99;41.52;94512.53;4971663;28;20038;-71
2021/01/12 05:18:50;;;;;;;4.18;2.20;;;;;;;22.02;41.59;94516.94;4971530;28;20459;-72
2021/01/12 05:21:16;;;;;;;3.33;2.33;;;;;;;21.94;41.37;94489.59;4971570;28;20113;-72
2021/01/12 05:23:59;;;;;;;2.55;2.10;;;;;;;22.08;41.39;94496.59;4969968;28;20432;-72
2021/01/12 05:26:24;;;;;;;3.22;2.00;;;;;;;22.13;41.06;94495.78;4970074;28;20039;-71
2021/01/12 05:28:50;;;;;;;2.80;2.03;;;;;;;22.18;41.20;94503.16;4970619;28;20035;-72
2021/01/12 05:31:15;;;;;;;3.00;1.83;;;;;;;22.09;41.20;94484.47;4941469;28;20117;-73
2021/01/12 05:33:42;;;;;;;2.38;1.92;;;;;;;22.24;41.31;94490.25;4970632;28;20894;-71
2021/01/12 05:36:08;;;;;;;3.08;2.05;;;;;;;22.26;41.18;94476.88;4970500;28;20026;-71
2021/01/12 05:38:33;;;;;;;2.63;1.88;;;;;;;22.28;41.19;94490.69;4970897;28;20027;-71
2021/01/12 05:41:00;;;;;;;3.13;2.03;;;;;;;22.31;41.16;94505.97;4970704;28;20026;-72
2021/01/12 05:43:32;;;;;;;3.53;2.10;;;;;;;22.34;41.06;94504.94;4967683;28;20423;-72
2021/01/12 05:46:03;;;;;;;2.20;1.65;;;;;;;22.38;40.95;94499.94;4970339;28;20031;-71
2021/01/12 05:48:29;;;;;;;2.72;1.90;;;;;;;22.44;40.84;94497.91;4982447;28;20708;-73
2021/01/12 05:50:54;;;;;;;2.88;2.10;;;;;;;22.46;40.83;94492.66;4971776;28;20030;-72
2021/01/12 05:53:22;;;;;;;3.30;1.80;;;;;;;22.56;40.51;94499.22;4969490;28;20512;-72
2021/01/12 05:55:50;;;;;;;3.03;2.08;;;;;;;22.53;41.11;94486.63;4983113;28;20035;-71
2021/01/12 05:58:19;;;;;;;2.72;1.90;;;;;;;22.74;40.31;94493.03;4968841;28;20096;-71
2021/01/12 06:00:51;;;;;;;3.45;2.25;;;;;;;22.82;40.06;94491.16;4965086;28;20031;-70
2021/01/12 06:03:16;;;;;;;2.20;1.70;;;;;;;22.88;39.86;94482.41;4980292;28;20139;-72
2021/01/12 06:05:46;;;;;;;3.15;2.08;;;;;;;22.99;39.88;94476.06;4966740;28;20407;-72
2021/01/12 06:08:13;;;;;;;3.03;2.00;;;;;;;23.08;39.38;94476.41;4975829;28;20018;-72
2021/01/12 06:10:38;;;;;;;2.83;1.90;;;;;;;23.16;39.59;94479.97;4977745;28;20027;-72
2021/01/12 06:13:04;;;;;;;3.45;1.92;;;;;;;23.12;39.11;94479.56;4969508;28;20041;-71
2021/01/12 06:15:29;;;;;;;3.13;2.15;;;;;;;23.29;38.84;94509.25;4966258;28;20030;-71
2021/01/12 06:18:04;;;;;;;2.70;1.80;;;;;;;23.38;39.18;94515.03;4984020;28;20031;-72
2021/01/12 06:20:30;;;;;;;2.92;2.20;;;;;;;23.43;38.77;94508.75;4966897;28;20061;-73
2021/01/12 06:22:56;;;;;;;2.67;1.90;;;;;;;23.53;38.60;94479.84;4966786;28;20038;-75
2021/01/12 06:25:21;;;;;;;3.22;2.25;;;;;;;23.59;38.59;94478.47;4967073;28;20023;-74
2021/01/12 06:27:47;;;;;;;2.85;1.88;;;;;;;23.68;38.34;94482.81;4959067;28;20019;-78
2021/01/12 06:30:13;;;;;;;3.53;2.03;;;;;;;23.75;38.51;94468.56;4958874;28;20415;-76
2021/01/12 06:32:38;;;;;;;2.47;1.75;;;;;;;23.88;37.83;94456.41;4969333;28;20039;-75
2021/01/12 06:35:06;;;;;;;2.90;1.60;;;;;;;23.93;37.91;94447.38;4957677;28;20053;-76
2021/01/12 06:37:39;;;;;;;4.32;2.10;;;;;;;23.99;38.11;94461.63;4963388;28;20056;-75
2021/01/12 06:40:07;;;;;;;2.95;2.03;;;;;;;24.07;37.97;94451.53;4972021;28;20038;-75
2021/01/12 06:42:33;;;;;;;2.58;1.73;;;;;;;24.16;37.74;94447.66;4970803;28;20037;-76
2021/01/12 06:44:58;;;;;;;2.95;2.00;;;;;;;24.11;37.45;94440.28;4969850;28;20035;-74
2021/01/12 06:47:28;;;;;;;2.55;1.80;;;;;;;24.28;37.30;94465.97;4959067;28;20087;-74
2021/01/12 06:50:03;;;;;;;2.25;1.75;;;;;;;24.33;37.30;94467.88;4974314;28;20010;-79
2021/01/12 06:52:29;;;;;;;2.42;1.70;;;;;;;24.36;37.59;94458.63;4969989;28;20052;-78
2021/01/12 06:55:04;;;;;;;2.38;1.75;;;;;;;24.38;37.69;94447.94;4976973;28;20037;-90
2021/01/12 06:57:30;;;;;;;2.88;1.90;;;;;;;24.43;37.46;94455.28;4987145;28;20114;-78
2021/01/12 06:59:55;;;;;;;2.53;1.52;;;;;;;24.41;37.55;94463.25;4969235;28;20023;-78
2021/01/12 07:02:32;;;;;;;3.17;1.67;;;;;;;24.37;37.31;94468.31;4969864;28;20026;-77
2021/01/12 07:05:10;;;;;;;3.22;1.90;;;;;;;24.36;37.37;94469.56;4961815;28;20038;-75
2021/01/12 07:07:49;;;;;;;3.20;2.00;;;;;;;24.36;37.73;94467.56;4966640;28;20031;-75
2021/01/12 07:10:19;;;;;;;2.17;1.70;;;;;;;24.47;37.52;94466.59;4965353;28;20098;-72
2021/01/12 07:12:44;;;;;;;2.75;1.58;;;;;;;24.48;37.17;94465.31;4979220;28;20014;-73
2021/01/12 07:15:20;;;;;;;2.88;1.70;;;;;;;24.56;37.22;94457.97;4970942;28;20042;-79
2021/01/12 07:17:46;;;;;;;2.65;1.70;;;;;;;24.50;37.22;94454.63;4965505;28;20038;-74
2021/01/12 07:20:16;;;;;;;2.55;1.70;;;;;;;24.68;37.05;94478.28;4983783;28;20031;-73
2021/01/12 07:22:50;;;;;;;2.20;1.45;;;;;;;24.78;37.11;94469.09;4957253;28;20035;-71
2021/01/12 07:25:18;;;;;;;2.50;1.63;;;;;;;24.80;36.76;94468.56;4961855;28;20027;-73
2021/01/12 07:27:44;;;;;;;3.13;1.50;;;;;;;24.82;36.97;94463.31;4981331;28;20032;-71
2021/01/12 07:30:10;;;;;;;2.90;1.60;;;;;;;24.83;37.09;94462.78;4982977;28;20031;-72
2021/01/12 07:32:37;;;;;;;2.30;1.50;;;;;;;24.86;36.98;94476.13;4956125;28;20027;-73
2021/01/12 07:35:07;;;;;;;4.40;1.65;;;;;;;24.87;36.75;94466.66;4957758;28;20027;-74
2021/01/12 07:37:35;;;;;;;2.50;1.67;;;;;;;24.93;36.66;94497.31;4957257;28;20022;-74
2021/01/12 07:40:00;;;;;;;3.78;1.40;;;;;;;24.76;37.05;94473.66;4956811;28;20069;-74
2021/01/12 07:42:26;;;;;;;2.83;1.50;;;;;;;24.95;36.57;94478.38;4969934;28;20503;-74
2021/01/12 07:44:51;;;;;;;3.17;1.65;;;;;;;24.96;36.88;94485.31;4968176;28;20034;-74
2021/01/12 07:47:17;;;;;;;2.28;1.33;;;;;;;25.04;36.72;94490.88;4966208;28;20030;-73
2021/01/12 07:49:43;;;;;;;2.22;1.60;;;;;;;24.92;36.80;94452.13;4968482;28;20023;-74
2021/01/12 07:52:09;;;;;;;3.10;1.65;;;;;;;25.02;36.88;94472.31;4969580;28;20038;-74
2021/01/12 07:54:35;;;;;;;3.15;1.67;;;;;;;25.07;37.01;94468.69;4957876;28;20488;-74
2021/01/12 07:57:00;;;;;;;3.35;1.83;;;;;;;25.03;37.51;94451.88;4954456;28;20027;-74
2021/01/12 07:59:26;;;;;;;2.30;1.58;;;;;;;24.98;37.46;94466.41;4982860;28;20030;-74
2021/01/12 08:01:51;;;;;;;3.60;1.70;;;;;;;24.96;37.75;94452.53;4955058;28;20054;-74
2021/01/12 08:04:17;;;;;;;2.40;1.75;;;;;;;24.92;38.03;94463.06;4958952;28;20055;-72
2021/01/12 08:06:48;;;;;;;3.88;1.85;;;;;;;24.84;37.86;94462.25;4970991;28;20026;-72
2021/01/12 08:09:21;;;;;;;2.92;1.85;;;;;;;24.71;37.93;94463.56;4974626;28;20026;-71
2021/01/12 08:11:47;;;;;;;2.60;1.75;;;;;;;24.62;38.19;94461.28;4966512;28;20026;-70
2021/01/12 08:14:13;;;;;;;2.53;1.90;;;;;;;24.47;38.42;94461.16;4970388;28;20404;-70
2021/01/12 08:16:38;;;;;;;3.40;1.95;;;;;;;24.49;38.14;94464.78;4972154;28;20019;-70
2021/01/12 08:19:04;;;;;;;2.05;1.33;;;;;;;24.45;38.50;94458.19;4971223;28;20023;-73
2021/01/12 08:21:39;;;;;;;2.75;1.63;;;;;;;24.41;38.43;94441.44;4972957;28;20037;-72
2021/01/12 08:24:06;;;;;;;2.47;1.40;;;;;;;24.18;39.27;94424.00;4971815;28;20094;-75
2021/01/12 08:26:31;;;;;;;2.67;1.65;;;;;;;24.11;38.82;94419.22;4971615;28;20109;-70
2021/01/12 08:28:57;;;;;;;3.05;1.58;;;;;;;23.99;39.27;94401.63;4953130;28;20034;-70
2021/01/12 08:31:22;;;;;;;2.85;1.70;;;;;;;24.26;38.98;94441.22;4970001;28;20488;-70
2021/01/12 08:33:48;;;;;;;4.30;1.65;;;;;;;24.25;38.86;94422.66;4971735;28;20026;-70
2021/01/12 08:36:17;;;;;;;1.90;1.30;;;;;;;23.93;38.82;94403.72;4971026;28;20164;-70
2021/01/12 08:38:43;;;;;;;2.85;1.60;;;;;;;24.13;39.11;94438.53;4986370;28;20065;-70
2021/01/12 08:41:08;;;;;;;2.20;1.50;;;;;;;24.09;39.03;94431.91;4970460;28;20031;-70
2021/01/12 08:43:34;;;;;;;1.95;1.40;;;;;;;24.03;39.02;94429.28;4970775;28;20015;-70
2021/01/12 08:46:00;;;;;;;2.45;1.40;;;;;;;24.01;39.09;94431.81;4970111;28;20037;-69
2021/01/12 08:48:25;;;;;;;2.00;1.40;;;;;;;24.01;38.91;94414.72;4969658;28;20051;-69
2021/01/12 08:50:51;;;;;;;2.78;1.63;;;;;;;24.02;38.82;94411.47;4971618;28;20153;-70
2021/01/12 08:53:17;;;;;;;2.40;1.60;;;;;;;24.03;38.81;94407.47;4971710;28;20109;-69
2021/01/12 08:55:42;;;;;;;1.95;1.40;;;;;;;23.98;39.13;94421.97;4971631;28;20534;-70
2021/01/12 08:58:09;;;;;;;2.13;1.63;;;;;;;23.94;38.88;94415.38;4971311;28;20027;-70
2021/01/12 09:00:38;;;;;;;2.10;1.48;;;;;;;23.91;38.94;94411.69;4971818;28;20479;-70
2021/01/12 09:03:05;;;;;;;2.10;1.38;;;;;;;23.86;38.90;94398.91;4971838;28;20059;-70
2021/01/12 09:05:31;;;;;;;2.00;1.40;;;;;;;23.85;39.01;94396.72;4971673;28;20517;-70
2021/01/12 09:08:07;;;;;;;2.55;1.67;;;;;;;23.84;39.23;94391.78;4971871;28;20026;-69
2021/01/12 09:10:33;;;;;;;2.38;1.42;;;;;;;23.82;39.48;94388.84;4971518;28;20027;-69
2021/01/12 09:12:59;;;;;;;2.05;1.52;;;;;;;23.81;39.47;94390.84;4972000;28;20491;-70
2021/01/12 09:15:32;;;;;;;2.25;1.40;;;;;;;23.80;38.92;94394.13;4972064;28;20037;-69
2021/01/12 09:18:19;;;;;;;2.33;1.60;;;;;;;23.74;39.05;94390.75;4970422;28;20490;-69
2021/01/12 09:20:55;;;;;;;2.30;1.52;;;;;;;23.71;39.74;94391.81;4971716;28;20045;-70
2021/01/12 09:23:20;;;;;;;2.47;2.17;;;;;;;23.65;39.49;94378.28;4971304;28;20053;-70
2021/01/12 09:25:53;;;;;;;2.40;1.48;;;;;;;23.59;39.56;94368.72;4968702;28;20925;-69
2021/01/12 09:28:23;;;;;;;1.98;1.40;;;;;;;23.49;39.38;94351.34;4968868;28;20484;-70
2021/01/12 09:30:49;;;;;;;2.40;1.27;;;;;;;23.59;39.53;94368.72;4985242;28;20052;-70
2021/01/12 09:33:23;;;;;;;2.45;1.45;;;;;;;23.57;39.55;94357.59;4968873;28;20416;-70
2021/01/12 09:36:10;;;;;;;2.55;1.65;;;;;;;23.59;39.69;94352.38;4969697;28;20411;-70
2021/01/12 09:38:45;;;;;;;2.40;1.60;;;;;;;23.57;39.71;94349.44;4970216;28;20039;-71
2021/01/12 09:41:11;;;;;;;2.13;1.48;;;;;;;23.47;39.46;94340.22;4969477;28;20089;-76
2021/01/12 09:43:37;;;;;;;2.58;1.60;;;;;;;23.47;39.84;94348.41;4969341;28;20046;-71
2021/01/12 09:46:03;;;;;;;2.25;1.30;;;;;;;23.39;39.42;94351.03;4965350;28;20117;-70
2021/01/12 09:48:28;;;;;;;1.83;1.30;;;;;;;23.41;39.86;94343.06;4954097;28;20034;-69
2021/01/12 09:50:54;;;;;;;2.15;1.50;;;;;;;23.37;40.15;94333.72;4970119;28;20035;-70
2021/01/12 09:53:19;;;;;;;2.20;1.50;;;;;;;23.33;39.87;94319.69;4970956;28;20508;-70
2021/01/12 09:55:45;;;;;;;2.70;1.77;;;;;;;23.34;39.84;94326.59;4970466;28;20121;-74
2021/01/12 09:58:10;;;;;;;2.35;1.60;;;;;;;23.21;39.69;94296.63;4993074;28;20511;-73
2021/01/12 10:00:36;;;;;;;2.30;1.70;;;;;;;23.39;39.78;94317.59;4971579;28;20026;-72
2021/01/12 10:03:03;;;;;;;2.47;1.40;;;;;;;23.36;40.02;94299.56;4968973;28;20051;-73
2021/01/12 10:05:29;;;;;;;3.47;1.40;;;;;;;23.22;39.92;94284.50;4965539;28;20484;-73
2021/01/12 10:07:54;;;;;;;3.45;1.50;;;;;;;23.23;40.05;94260.69;4970688;28;20023;-73
2021/01/12 10:10:20;;;;;;;1.85;1.45;;;;;;;23.30;40.53;94266.25;4967091;28;20413;-73
2021/01/12 10:12:45;;;;;;;3.67;1.60;;;;;;;23.30;40.18;94266.25;4968934;28;20034;-74
2021/01/12 10:15:11;;;;;;;2.03;1.38;;;;;;;23.30;40.33;94266.25;4970495;28;20486;-73
2021/01/12 10:17:36;;;;;;;1.98;1.60;;;;;;;23.32;40.20;94268.44;4970706;28;20030;-74
2021/01/12 10:20:02;;;;;;;2.03;1.48;;;;;;;23.35;40.45;94273.59;4969594;28;20427;-73
2021/01/12 10:22:28;;;;;;;2.90;1.42;;;;;;;23.35;40.01;94276.31;4968718;28;20104;-73
2021/01/12 10:24:57;;;;;;;2.80;1.58;;;;;;;23.36;40.44;94280.50;4970855;28;20023;-73
2021/01/12 10:27:31;;;;;;;2.63;1.63;;;;;;;23.36;40.41;94274.31;4969072;28;20499;-73
2021/01/12 10:29:57;;;;;;;2.17;1.30;;;;;;;23.31;40.09;94262.28;4970330;28;20030;-73
2021/01/12 10:32:23;;;;;;;2.38;1.67;;;;;;;23.32;40.44;94269.19;4970500;28;20535;-73
2021/01/12 10:34:48;;;;;;;14.00;2.47;;;;;;;23.28;40.31;94257.88;4969178;28;20053;-73
2021/01/12 10:37:14;;;;;;;5.82;1.48;;;;;;;23.31;40.73;94250.66;4970190;28;20487;-71
2021/01/12 10:39:39;;;;;;;7.57;1.70;;;;;;;23.32;40.28;94236.50;4985251;28;20038;-72
2021/01/12 10:42:06;;;;;;;8.63;1.80;;;;;;;23.34;40.83;94244.16;4970146;28;20066;-73
2021/01/12 10:44:32;;;;;;;5.07;1.60;;;;;;;23.30;41.42;94244.44;4970103;28;20519;-73
2021/01/12 10:46:57;;;;;;;6.80;1.70;;;;;;;23.32;41.65;94247.41;4970044;28;20034;-72
2021/01/12 10:49:23;;;;;;;5.90;1.48;;;;;;;23.30;41.45;94244.44;4969474;28;20035;-72
2021/01/12 10:52:02;;;;;;;5.32;1.75;;;;;;;23.32;41.87;94252.09;4984515;28;20027;-73
2021/01/12 10:54:28;;;;;;;2.87;1.70;;;;;;;23.32;41.62;94241.94;4970022;28;20041;-77
2021/01/12 10:56:54;;;;;;;4.82;2.20;;;;;;;23.31;41.30;94250.66;4984827;28;20023;-74
2021/01/12 10:59:19;;;;;;;3.65;1.60;;;;;;;23.30;41.34;94260.81;4971657;28;20034;-74
2021/01/12 11:01:51;;;;;;;3.47;1.90;;;;;;;23.28;42.00;94244.25;4969424;28;20035;-73
2021/01/12 11:04:17;;;;;;;4.57;1.60;;;;;;;23.32;42.07;94239.22;4982060;28;20082;-71
2021/01/12 11:06:42;;;;;;;3.13;1.40;;;;;;;23.33;41.45;94227.06;4925432;28;20050;-72
2021/01/12 11:09:08;;;;;;;5.50;2.10;;;;;;;23.37;41.74;94229.47;4985082;28;20763;-70
2021/01/12 11:11:35;;;;;;;3.20;1.50;;;;;;;23.41;41.77;94241.50;4969969;28;20508;-71
2021/01/12 11:14:08;;;;;;;4.65;1.60;;;;;;;23.43;41.57;94226.09;4976769;28;20027;-71
2021/01/12 11:16:38;;;;;;;3.22;1.33;;;;;;;23.50;41.41;94222.00;4972561;28;20555;-72
2021/01/12 11:19:04;;;;;;;3.50;1.73;;;;;;;23.54;41.43;94214.22;4973482;28;20553;-71
2021/01/12 11:21:30;;;;;;;2.70;1.70;;;;;;;23.55;40.84;94204.78;4972593;28;20031;-73
2021/01/12 11:23:59;;;;;;;2.88;1.65;;;;;;;23.50;41.06;94172.94;4973121;28;20022;-76
2021/01/12 11:26:31;;;;;;;2.38;1.65;;;;;;;23.74;40.88;94189.75;4973945;28;20076;-75
2021/01/12 11:28:57;;;;;;;2.92;1.50;;;;;;;23.53;40.41;94169.16;4971576;28;20106;-71
2021/01/12 11:31:22;;;;;;;4.35;1.73;;;;;;;23.89;40.67;94217.88;4987903;28;20496;-72
2021/01/12 11:33:48;;;;;;;3.90;1.92;;;;;;;23.81;40.29;94171.97;4969637;28;20110;-71